Chemehuevi, California
Current Conditions -  °F | °C
As of 1:56 PM on Tuesday 21 Oct 2014 (Local Time) from KEED Reporting Station
Clear Clear  
Wind Chill: 92°   Ceiling: Unl
Heat Index: 92°   Visibility: 10mi
Dew Point: 43°   Wind: 0mph
Humidity: 18%   Direction: NA
Pressure: 29.76"   Gusts: NA
Location:  34.5025°N, 114.671°W
Report Text: KEED 212156Z AUTO 00000KT 10SM CLR 33/06 A2976 RMK AO2 SLP048 T03330061
Loading
Personal Weather Stations






























Interactive Weather Map
Tropical Storm Tracking
New forecast layout! Learn more

10-Day Weather Forecast

Advertisements
Track Severe Weather on mobile